Portada
METAR-TAF:

METAR-TAF

Aeropuertos :

Aeropuerto Internacional de Harbin

Harbin, China

latitud: 45-45N, longitud: 126-46E, altitud: 143 m

Observación

El informe se hizo hace 43 minutos, a las 17:00 UTC
Viento 6 kt del sur
Temperatura 21°C
Humedad 56%
Presión 1005 hPa
Visibilidad 10 km o más
sin nubes por debajo de 1500 m y sin presencia de cumulonimbus.

METAR: ZYHB 061700Z 18003MPS CAVOK 21/12 Q1005 NOSIG

Hora: 01:43 (17:43 UTC)

Pronóstico

El informe se hizo hace 2 horas y 40 minutos, a las 15:03 UTC
Pronóstico válido del 06 a las 18 UTC al 07 a las 18 UTC
Viento 8 kt del sur
Visibilidad: 6000 m
Nubes dispersas a una altura de 3000 ft

TAF: ZYHB 061503Z 0618/0718 19004MPS 6000 SCT030 TX32/0706Z TN17/0621Z

Observaciones y pronósticos meteorológicos de más de 4000 aeropuertos (mensajes METAR y TAF).

Los puntos amarillos y rojos representan las estaciones disponibles.

Ponga el ratón en el punto deseado para ver el nombre de la estación.

Haga clic para ver las observaciones y los pronósticos meteorológicos.

Para cambiar el mapa : haga clic en los botones verdes con una cruz de color negro para hacer un zoom, en el botón verde con un guión para alejar o en las flechas verdes para mapas adyacentes.


METAR-TAF: